Terminal Aerodrome Forecast
Issued by NWS Memphis, TN

Home | Current Version | Previous Version | Text Only | Print | Product List | Glossary On
Versions: 1 2 3 4 5 6 7 8 9 10 11 12 13 14 15 16
000
FTUS44 KMEG 291100
TAFMKL
TAF
KMKL 291131Z 2912/3012 00000KT 5SM BR SKC
     FM291400 14003KT P6SM FEW250
     FM291700 20005KT P6SM FEW060 SCT250
     FM300000 18003KT P6SM BKN250
     FM301000 19005KT P6SM VCSH SCT060 OVC250=

USA.gov is the U.S. government's official web portal to all federal, state and local government web resources and services.